KGSP

Greenville Spartanburg International Airport

Greer, South Carolina, USA
METAR KGSP 230253Z 20004KT 10SM FEW065 21/21 A3012 RMK AO2 SLP189 T02110206 51017
Observed Flight Rules
May-23 @ 02:53 UTC (21 minutes ago) Visual Flight Rules
Wind Visibility Clouds
200° at 4 knots 10 miles
  • Few at 6,500' AGL
Temperatures Readings
Current 21°C / 70°F
Dewpoint 21°C / 70°F
Humidity 100%
Altimeter 30.12" Hg
Pressure 1018.9 hPa
Elevation 287
METAR KGSP 230253Z 20004KT 10SM FEW065 21/21 A3012 RMK AO2 SLP189 T02110206 51017
Observed Flight Rules
May-23 @ 02:53 UTC
(21 minutes ago)
VFR
Wind Visibility
200° at 4 knots 10 miles
Clouds
  • Few at 6,500' AGL
Temperature Dewpoint
21°C / 70°F 21°C / 70°F
Humidity Altimeter Pressure
100% 30.12" Hg 1018.9 hPa